Childwall, United Kingdom
Current Conditions -  °F | °C
As of 10:50 PM on Thursday 27 Nov 2014 (Local Time) from EGGP Reporting Station
Few Clouds Few Clouds  
Wind Chill: 38°   Ceiling: Unl
Heat Index: 43°   Visibility: 6mi
Dew Point: 43°   Wind: 8mph
Humidity: 100%   Direction: 80°E
Pressure: 29.59"   Gusts: NA
Location:  53.39°N, 2.89°W
Report Text: EGGP 272250Z 08007KT 9000 FEW035 06/06 Q1002
Loading
Personal Weather Stations






























Interactive Weather Map New forecast layout! Learn more

10-Day Weather Forecast

Advertisements
Track Severe Weather on mobile